createdAt,value
2022-12-29T00:00:10.837Z,98.60
2022-12-29T00:02:41.815Z,98.60
2022-12-29T00:05:09.176Z,98.60
2022-12-29T00:07:36.450Z,98.60
2022-12-29T00:10:03.874Z,98.50
2022-12-29T00:12:50.825Z,98.50
2022-12-29T00:15:36.607Z,98.50
2022-12-29T00:18:03.898Z,98.60
2022-12-29T00:20:52.520Z,98.50
2022-12-29T00:23:37.967Z,98.70
2022-12-29T00:26:28.083Z,98.50
2022-12-29T00:29:13.607Z,98.60
2022-12-29T00:31:59.461Z,98.60
2022-12-29T00:34:44.729Z,98.70
2022-12-29T00:37:12.064Z,98.70
2022-12-29T00:39:57.453Z,98.70
2022-12-29T00:42:43.833Z,98.80
2022-12-29T00:45:10.899Z,98.80
2022-12-29T00:47:37.914Z,98.70
2022-12-29T00:50:05.255Z,98.70
2022-12-29T00:52:32.213Z,98.70
2022-12-29T00:54:59.137Z,98.80
2022-12-29T00:57:26.149Z,98.80
2022-12-29T00:59:53.193Z,98.90
2022-12-29T01:02:20.331Z,98.90
2022-12-29T01:04:47.585Z,98.90
2022-12-29T01:07:16.890Z,98.80
2022-12-29T01:10:04.108Z,98.80
2022-12-29T01:12:43.305Z,98.90
2022-12-29T01:15:12.432Z,98.80
2022-12-29T01:17:39.529Z,98.80
2022-12-29T01:20:07.119Z,98.80
2022-12-29T01:22:34.217Z,98.80
2022-12-29T01:25:01.208Z,98.90
2022-12-29T01:27:28.208Z,98.90
2022-12-29T01:29:55.254Z,98.90
2022-12-29T01:32:22.269Z,98.90
2022-12-29T01:34:49.316Z,98.90
2022-12-29T01:37:16.294Z,98.90
2022-12-29T01:39:45.188Z,98.90
2022-12-29T01:42:18.508Z,98.90
2022-12-29T01:44:50.082Z,99.00
2022-12-29T01:47:31.729Z,98.90
2022-12-29T01:50:03.919Z,98.90
2022-12-29T01:52:35.172Z,98.90
2022-12-29T01:55:04.490Z,98.90
2022-12-29T01:57:36.729Z,98.90
2022-12-29T02:00:10.389Z,98.90
2022-12-29T02:02:45.873Z,98.90
2022-12-29T02:05:19.644Z,98.90
2022-12-29T02:07:47.765Z,98.90
2022-12-29T02:10:15.069Z,98.90
2022-12-29T02:12:42.182Z,98.90
2022-12-29T02:15:10.025Z,98.90
2022-12-29T02:17:44.004Z,98.90
2022-12-29T02:20:51.610Z,98.90
2022-12-29T02:24:00.470Z,99.00
2022-12-29T02:27:06.702Z,98.90
2022-12-29T02:29:49.673Z,99.00
2022-12-29T02:32:38.696Z,99.00
2022-12-29T02:35:15.807Z,99.00
2022-12-29T02:37:55.458Z,99.00
2022-12-29T02:40:34.716Z,99.00
2022-12-29T02:43:15.214Z,99.00
2022-12-29T02:46:29.015Z,99.00
2022-12-29T02:49:02.830Z,99.00
2022-12-29T02:51:47.840Z,99.00
2022-12-29T02:54:35.765Z,98.90
2022-12-29T02:57:03.105Z,98.90
2022-12-29T02:59:30.664Z,99.00
2022-12-29T03:02:21.271Z,99.00
2022-12-29T03:04:53.284Z,99.00
2022-12-29T03:07:33.525Z,99.00
2022-12-29T03:10:33.053Z,99.00
2022-12-29T03:13:56.073Z,99.00
2022-12-29T03:16:38.970Z,99.10
2022-12-29T03:19:32.193Z,99.10
2022-12-29T03:22:24.905Z,99.00
2022-12-29T03:25:18.883Z,99.10
2022-12-29T03:28:08.144Z,99.10
2022-12-29T03:30:42.924Z,99.10
2022-12-29T03:33:15.941Z,99.10
2022-12-29T03:35:47.280Z,99.10
2022-12-29T03:38:20.302Z,99.00
2022-12-29T03:40:56.415Z,99.10
2022-12-29T03:43:26.723Z,99.00
2022-12-29T03:45:53.751Z,99.00
2022-12-29T03:48:20.756Z,99.00
2022-12-29T03:50:49.846Z,99.10
2022-12-29T03:53:17.739Z,99.10
2022-12-29T03:55:46.281Z,99.10
2022-12-29T03:58:13.406Z,99.10
2022-12-29T04:00:54.726Z,99.10
2022-12-29T04:03:21.800Z,99.10
2022-12-29T04:05:48.895Z,99.10
2022-12-29T04:08:16.041Z,99.10
2022-12-29T04:10:43.480Z,99.10
2022-12-29T04:13:10.554Z,99.10
2022-12-29T04:15:37.684Z,99.10
2022-12-29T04:18:04.741Z,99.00
2022-12-29T04:20:52.033Z,99.00
2022-12-29T04:23:19.142Z,98.90
2022-12-29T04:25:48.184Z,98.90
2022-12-29T04:28:17.023Z,99.00
2022-12-29T04:30:48.784Z,99.00
2022-12-29T04:33:23.103Z,99.10
2022-12-29T04:35:50.379Z,99.10
2022-12-29T04:38:17.905Z,99.20
2022-12-29T04:40:47.174Z,99.20
2022-12-29T04:43:15.846Z,99.20
2022-12-29T04:46:01.564Z,99.30
2022-12-29T04:48:35.747Z,99.30
2022-12-29T04:51:11.713Z,99.30
2022-12-29T04:53:40.108Z,99.30
2022-12-29T04:56:08.577Z,99.30
2022-12-29T04:58:36.811Z,99.30
2022-12-29T05:01:04.203Z,99.30
2022-12-29T05:03:31.675Z,99.30
2022-12-29T05:05:59.135Z,99.30
2022-12-29T05:08:28.239Z,99.30
2022-12-29T05:10:58.689Z,99.30
2022-12-29T05:13:26.555Z,99.30
2022-12-29T05:15:54.652Z,99.30
2022-12-29T05:18:23.794Z,99.20
2022-12-29T05:20:51.295Z,99.10
2022-12-29T05:23:20.363Z,99.40
2022-12-29T05:25:53.392Z,99.10
2022-12-29T05:28:38.694Z,99.20
2022-12-29T05:31:12.373Z,99.20
2022-12-29T05:33:39.658Z,99.20
2022-12-29T05:36:08.322Z,99.20
2022-12-29T05:38:37.970Z,99.20
2022-12-29T05:41:05.463Z,99.30
2022-12-29T05:43:55.275Z,99.30
2022-12-29T05:46:39.442Z,99.30
2022-12-29T05:49:18.610Z,99.30
2022-12-29T05:51:56.107Z,99.30
2022-12-29T05:54:23.275Z,99.30
2022-12-29T05:56:50.938Z,99.30
2022-12-29T05:59:18.007Z,99.30
2022-12-29T06:01:45.491Z,99.20
2022-12-29T06:04:12.804Z,99.20
2022-12-29T06:06:40.876Z,99.00
2022-12-29T06:09:14.002Z,99.00
2022-12-29T06:11:41.176Z,99.00
2022-12-29T06:14:08.995Z,99.10
2022-12-29T06:16:36.154Z,99.10
2022-12-29T06:19:05.829Z,99.20
2022-12-29T06:21:32.931Z,99.20
2022-12-29T06:24:02.065Z,99.30
2022-12-29T06:26:29.194Z,99.20
2022-12-29T06:28:57.076Z,99.10
2022-12-29T06:31:24.200Z,99.10
2022-12-29T06:33:51.367Z,99.20
2022-12-29T06:36:18.512Z,99.20
2022-12-29T06:38:45.626Z,99.30
2022-12-29T06:41:15.644Z,99.30
2022-12-29T06:44:00.903Z,99.30
2022-12-29T06:46:45.814Z,99.40
2022-12-29T06:49:12.819Z,99.40
2022-12-29T06:51:39.808Z,99.50
2022-12-29T06:54:07.049Z,99.50
2022-12-29T06:56:34.064Z,99.60
2022-12-29T06:59:04.305Z,99.60
2022-12-29T07:01:31.414Z,99.60
2022-12-29T07:03:58.635Z,99.70
2022-12-29T07:06:25.718Z,99.80
2022-12-29T07:08:56.077Z,99.80
2022-12-29T07:11:23.329Z,99.70
2022-12-29T07:13:50.726Z,99.70
2022-12-29T07:16:17.817Z,99.50
2022-12-29T07:18:44.876Z,99.50
2022-12-29T07:21:12.764Z,99.50
2022-12-29T07:23:39.813Z,99.40
2022-12-29T07:26:09.484Z,99.50
2022-12-29T07:28:37.171Z,99.60
2022-12-29T07:31:04.339Z,99.60
2022-12-29T07:33:32.354Z,99.70
2022-12-29T07:36:00.213Z,99.70
2022-12-29T07:38:27.256Z,99.80
2022-12-29T07:40:58.303Z,99.80
2022-12-29T07:43:25.736Z,99.80
2022-12-29T07:46:54.236Z,99.70
2022-12-29T07:48:59.974Z,99.60
2022-12-29T07:51:27.047Z,99.60
2022-12-29T07:53:54.030Z,99.70
2022-12-29T07:56:21.028Z,99.70
2022-12-29T07:58:47.999Z,99.60
2022-12-29T08:01:15.064Z,99.60
2022-12-29T08:03:42.609Z,99.50
2022-12-29T08:06:12.746Z,99.50
2022-12-29T08:08:39.749Z,99.50
2022-12-29T08:11:06.893Z,99.50
2022-12-29T08:13:33.885Z,99.50
2022-12-29T08:16:01.108Z,99.50
2022-12-29T08:18:28.151Z,99.50
2022-12-29T08:20:55.799Z,99.40
2022-12-29T08:23:23.065Z,99.40
2022-12-29T08:25:58.985Z,99.40
2022-12-29T08:28:26.362Z,99.40
2022-12-29T08:30:53.736Z,99.40
2022-12-29T08:33:20.853Z,99.40
2022-12-29T08:35:47.943Z,99.40
2022-12-29T08:38:17.481Z,99.30
2022-12-29T08:40:44.634Z,99.20
2022-12-29T08:43:13.756Z,99.20
2022-12-29T08:45:44.031Z,99.20
2022-12-29T08:48:11.027Z,99.20
2022-12-29T08:50:38.061Z,99.20
2022-12-29T08:53:05.045Z,99.10
2022-12-29T08:55:32.040Z,99.10
2022-12-29T08:57:59.062Z,99.20
2022-12-29T09:00:26.617Z,99.10
2022-12-29T09:02:53.891Z,99.00
2022-12-29T09:05:21.101Z,99.00
2022-12-29T09:07:48.154Z,99.00
2022-12-29T09:10:15.275Z,98.90
2022-12-29T09:12:42.265Z,98.80
2022-12-29T09:15:09.919Z,98.80
2022-12-29T09:17:45.692Z,98.80
2022-12-29T09:20:14.206Z,98.80
2022-12-29T09:22:41.650Z,98.80
2022-12-29T09:25:10.188Z,98.80
2022-12-29T09:27:37.959Z,98.80
2022-12-29T09:30:07.497Z,98.80
2022-12-29T09:32:40.428Z,98.90
2022-12-29T09:35:10.961Z,99.00
2022-12-29T09:37:38.012Z,99.00
2022-12-29T09:40:07.248Z,99.00
2022-12-29T09:42:45.021Z,98.90
2022-12-29T09:45:16.285Z,98.90
2022-12-29T09:47:45.101Z,98.80
2022-12-29T09:50:26.787Z,98.60
2022-12-29T09:53:18.241Z,98.60
2022-12-29T09:55:55.278Z,98.70
2022-12-29T09:58:32.022Z,98.80
2022-12-29T10:01:19.072Z,98.80
2022-12-29T10:03:54.422Z,98.80
2022-12-29T10:07:19.352Z,98.90
2022-12-29T10:09:44.168Z,98.80
2022-12-29T10:12:29.968Z,98.80
2022-12-29T10:15:05.620Z,98.80
2022-12-29T10:17:41.680Z,98.70
2022-12-29T10:20:37.806Z,98.70
2022-12-29T10:23:41.536Z,98.60
2022-12-29T10:26:16.165Z,98.70
2022-12-29T10:28:58.282Z,98.70
2022-12-29T10:31:32.274Z,98.80
2022-12-29T10:34:04.787Z,98.80
2022-12-29T10:36:43.538Z,98.90
2022-12-29T10:39:31.312Z,99.00
2022-12-29T10:42:14.925Z,99.00
2022-12-29T10:44:42.573Z,99.10
2022-12-29T10:47:24.587Z,99.10
2022-12-29T10:49:51.999Z,99.10
2022-12-29T10:52:22.071Z,99.00
2022-12-29T10:55:03.277Z,99.00
2022-12-29T10:57:36.336Z,99.10
2022-12-29T11:00:14.629Z,99.00
2022-12-29T11:02:54.667Z,99.00
2022-12-29T11:05:33.653Z,98.80
2022-12-29T11:08:12.355Z,98.50
2022-12-29T11:10:44.484Z,98.20
2022-12-29T11:13:20.435Z,98.30
2022-12-29T11:15:50.159Z,98.30
2022-12-29T11:18:21.940Z,98.30
2022-12-29T11:20:50.791Z,98.30
2022-12-29T11:23:35.879Z,98.30
2022-12-29T11:26:17.188Z,98.20
2022-12-29T11:28:47.284Z,98.10
2022-12-29T11:31:18.877Z,98.00
2022-12-29T11:33:45.928Z,97.90
2022-12-29T11:36:23.474Z,97.80
2022-12-29T11:38:55.699Z,97.60
2022-12-29T11:41:31.987Z,97.20
2022-12-29T11:44:02.197Z,96.80
2022-12-29T11:46:35.701Z,96.50
2022-12-29T11:49:03.282Z,95.70
2022-12-29T11:51:44.437Z,95.30
2022-12-29T11:54:22.191Z,95.00
2022-12-29T11:56:50.547Z,95.00
2022-12-29T11:59:32.381Z,95.00
2022-12-29T12:02:03.966Z,95.10
2022-12-29T12:04:36.474Z,95.10
2022-12-29T12:07:18.233Z,95.10
2022-12-29T12:09:48.417Z,95.10
2022-12-29T12:12:44.250Z,95.20
2022-12-29T12:15:22.973Z,95.20
2022-12-29T12:18:31.461Z,95.30
2022-12-29T12:21:05.213Z,95.40
2022-12-29T12:23:43.355Z,95.50
2022-12-29T12:26:28.818Z,95.60
2022-12-29T12:29:14.526Z,95.60
2022-12-29T12:32:02.776Z,95.70
2022-12-29T12:34:40.097Z,95.60
2022-12-29T12:37:41.192Z,95.60
2022-12-29T12:40:36.073Z,95.50
2022-12-29T12:43:34.056Z,95.60
2022-12-29T12:46:37.604Z,95.70
2022-12-29T12:49:19.857Z,95.70
2022-12-29T12:52:23.785Z,95.80
2022-12-29T12:55:12.377Z,95.80
2022-12-29T12:57:49.795Z,95.90
2022-12-29T13:00:24.389Z,95.90
2022-12-29T13:03:31.828Z,95.90
2022-12-29T13:06:14.226Z,96.00
2022-12-29T13:08:59.044Z,96.10
2022-12-29T13:11:37.649Z,96.10
2022-12-29T13:14:25.451Z,96.20
2022-12-29T13:17:16.811Z,96.30
2022-12-29T13:20:22.516Z,96.20
2022-12-29T13:23:02.526Z,96.20
2022-12-29T13:25:38.895Z,96.00
2022-12-29T13:28:17.180Z,95.90
2022-12-29T13:31:05.379Z,95.90
2022-12-29T13:33:50.615Z,95.90
2022-12-29T13:36:38.480Z,95.90
2022-12-29T13:39:21.393Z,96.00
2022-12-29T13:41:56.910Z,96.10
2022-12-29T13:44:49.791Z,96.20
2022-12-29T13:47:26.281Z,96.30
2022-12-29T13:49:54.841Z,96.30
2022-12-29T13:52:49.546Z,96.40
2022-12-29T13:55:20.646Z,96.40
2022-12-29T13:58:04.216Z,96.60
2022-12-29T14:00:49.254Z,96.70
2022-12-29T14:03:53.804Z,96.70
2022-12-29T14:06:23.856Z,96.80
2022-12-29T14:08:53.846Z,96.90
2022-12-29T14:11:25.784Z,96.90
2022-12-29T14:13:53.209Z,97.00
2022-12-29T14:16:35.802Z,97.10
2022-12-29T14:19:13.574Z,97.20
2022-12-29T14:21:41.196Z,97.30
2022-12-29T14:24:36.265Z,97.30
2022-12-29T14:27:23.780Z,97.40
2022-12-29T14:29:52.162Z,97.40
2022-12-29T14:32:27.818Z,97.40
2022-12-29T14:35:21.747Z,97.40
2022-12-29T14:37:48.773Z,97.40
2022-12-29T14:40:27.332Z,97.40
2022-12-29T14:42:58.478Z,97.40
2022-12-29T14:45:30.464Z,97.30
2022-12-29T14:47:57.838Z,97.60
2022-12-29T14:50:26.251Z,97.30
2022-12-29T14:53:02.399Z,97.30
2022-12-29T14:55:43.100Z,97.40
2022-12-29T14:58:39.571Z,97.40
2022-12-29T15:01:27.739Z,97.30
2022-12-29T15:03:59.188Z,97.40
2022-12-29T15:06:30.763Z,97.40
2022-12-29T15:09:04.778Z,97.60
2022-12-29T15:11:37.739Z,97.30
2022-12-29T15:14:24.818Z,97.30
2022-12-29T15:16:51.893Z,97.60
2022-12-29T15:19:26.631Z,97.30
2022-12-29T15:21:57.618Z,97.30
2022-12-29T15:24:25.201Z,97.30
2022-12-29T15:26:54.444Z,97.60
2022-12-29T15:29:38.554Z,97.20
2022-12-29T15:32:21.210Z,97.20
2022-12-29T15:34:51.637Z,97.30
2022-12-29T15:37:24.994Z,97.30
2022-12-29T15:39:53.355Z,97.40
2022-12-29T15:42:29.110Z,97.40
2022-12-29T15:45:08.925Z,97.50
2022-12-29T15:47:37.386Z,97.50
2022-12-29T15:50:18.676Z,97.50
2022-12-29T15:52:45.662Z,97.60
2022-12-29T15:55:32.742Z,97.60
2022-12-29T15:58:01.842Z,97.70
2022-12-29T16:00:30.666Z,97.70
2022-12-29T16:03:01.136Z,97.70
2022-12-29T16:05:39.780Z,97.70
2022-12-29T16:08:33.547Z,97.70
2022-12-29T16:11:03.654Z,97.80
2022-12-29T16:13:40.544Z,97.80
2022-12-29T16:16:25.781Z,97.80
2022-12-29T16:18:57.747Z,97.90
2022-12-29T16:21:33.631Z,97.90
2022-12-29T16:24:09.507Z,97.90
2022-12-29T16:26:37.943Z,97.90
2022-12-29T16:29:08.708Z,97.90
2022-12-29T16:31:37.677Z,98.00
2022-12-29T16:34:30.558Z,98.00
2022-12-29T16:36:59.799Z,98.00
2022-12-29T16:39:28.845Z,98.00
2022-12-29T16:41:56.486Z,98.00
2022-12-29T16:44:27.509Z,98.00
2022-12-29T16:47:12.585Z,98.10
2022-12-29T16:49:41.812Z,98.10
2022-12-29T16:52:23.673Z,98.10
2022-12-29T16:55:04.308Z,98.20
2022-12-29T16:57:37.590Z,98.10
2022-12-29T17:00:08.553Z,98.10
2022-12-29T17:02:45.772Z,98.10
2022-12-29T17:05:17.534Z,98.10
2022-12-29T17:07:45.246Z,98.10
2022-12-29T17:10:13.480Z,98.20
2022-12-29T17:12:42.599Z,98.20
2022-12-29T17:15:19.437Z,98.10
2022-12-29T17:17:49.031Z,98.20
2022-12-29T17:20:17.503Z,98.30
2022-12-29T17:22:45.218Z,98.30
2022-12-29T17:25:21.002Z,98.30
2022-12-29T17:27:56.909Z,98.30
2022-12-29T17:30:31.221Z,98.30
2022-12-29T17:33:04.252Z,98.30
2022-12-29T17:35:31.482Z,98.30
2022-12-29T17:37:58.460Z,98.50
2022-12-29T17:40:28.867Z,98.30
2022-12-29T17:42:58.528Z,98.20
2022-12-29T17:45:34.377Z,98.30
2022-12-29T17:48:02.129Z,98.30
2022-12-29T17:50:31.387Z,98.40
2022-12-29T17:53:03.156Z,98.50
2022-12-29T17:55:37.134Z,98.50
2022-12-29T17:58:26.317Z,98.60
2022-12-29T18:00:56.650Z,98.60
2022-12-29T18:03:27.662Z,98.60
2022-12-29T18:05:55.627Z,98.60
2022-12-29T18:08:22.613Z,98.60
2022-12-29T18:10:52.116Z,98.60
2022-12-29T18:13:40.365Z,98.70
2022-12-29T18:16:12.472Z,98.70
2022-12-29T18:18:39.513Z,98.70
2022-12-29T18:21:06.532Z,98.70
2022-12-29T18:23:37.662Z,98.70
2022-12-29T18:26:11.633Z,98.80
2022-12-29T18:28:38.640Z,98.80
2022-12-29T18:31:18.785Z,98.80
2022-12-29T18:33:46.034Z,98.80
2022-12-29T18:36:14.002Z,98.70
2022-12-29T18:38:41.698Z,98.70
2022-12-29T18:41:31.821Z,98.60
2022-12-29T18:44:00.000Z,98.70
2022-12-29T18:46:27.340Z,98.70
2022-12-29T18:48:54.915Z,98.70
2022-12-29T18:51:24.562Z,98.70
2022-12-29T18:53:54.311Z,98.60
2022-12-29T18:56:22.735Z,98.50
2022-12-29T18:58:50.494Z,98.60
2022-12-29T19:01:21.001Z,98.70
2022-12-29T19:03:48.674Z,98.80
2022-12-29T19:06:15.807Z,98.90
2022-12-29T19:08:42.809Z,98.90
2022-12-29T19:11:09.868Z,99.00
2022-12-29T19:13:36.974Z,99.10
2022-12-29T19:16:04.250Z,99.20
2022-12-29T19:18:43.583Z,99.30
2022-12-29T19:21:11.690Z,99.30
2022-12-29T19:23:38.750Z,99.40
2022-12-29T19:26:06.126Z,99.40
2022-12-29T19:28:33.150Z,99.40
2022-12-29T19:31:02.029Z,99.50
2022-12-29T19:33:29.664Z,99.50
2022-12-29T19:36:02.951Z,99.50
2022-12-29T19:38:30.044Z,99.60
2022-12-29T19:40:57.348Z,99.60
2022-12-29T19:43:24.558Z,99.70
2022-12-29T19:45:52.532Z,99.70
2022-12-29T19:48:21.194Z,99.70
2022-12-29T19:50:48.317Z,99.80
2022-12-29T19:53:16.194Z,99.80
2022-12-29T19:55:44.647Z,99.90
2022-12-29T19:58:11.726Z,99.90
2022-12-29T20:00:40.904Z,99.90
2022-12-29T20:03:08.085Z,99.90
2022-12-29T20:05:35.537Z,99.90
2022-12-29T20:08:02.512Z,99.90
2022-12-29T20:10:29.527Z,99.90
2022-12-29T20:12:56.672Z,99.90
2022-12-29T20:15:23.604Z,99.90
2022-12-29T20:20:37.671Z,99.90
2022-12-29T20:23:04.667Z,99.90
2022-12-29T20:25:44.660Z,99.90
2022-12-29T20:28:12.893Z,99.90
2022-12-29T20:30:39.884Z,99.90
2022-12-29T20:33:08.630Z,99.90
2022-12-29T20:35:36.464Z,99.90
2022-12-29T20:38:04.106Z,99.90
2022-12-29T20:40:32.360Z,99.90
2022-12-29T20:42:59.477Z,99.90
2022-12-29T20:45:26.583Z,99.90
2022-12-29T20:47:54.772Z,99.90
2022-12-29T20:50:21.779Z,99.90
2022-12-29T20:52:48.828Z,99.90
2022-12-29T20:55:15.809Z,99.90
2022-12-29T20:58:22.997Z,99.90
2022-12-29T21:00:30.797Z,99.80
2022-12-29T21:02:59.817Z,99.80
2022-12-29T21:05:27.941Z,99.80
2022-12-29T21:07:55.851Z,99.80
2022-12-29T21:10:23.222Z,99.80
2022-12-29T21:12:50.208Z,99.80
2022-12-29T21:15:17.484Z,99.80
2022-12-29T21:17:45.165Z,99.70
2022-12-29T21:20:20.435Z,99.70
2022-12-29T21:22:48.568Z,99.70
2022-12-29T21:25:15.726Z,99.70
2022-12-29T21:27:45.439Z,99.60
2022-12-29T21:30:13.421Z,99.60
2022-12-29T21:32:41.425Z,99.60
2022-12-29T21:35:09.768Z,99.60
2022-12-29T21:37:37.387Z,99.60
2022-12-29T21:40:05.759Z,99.60
2022-12-29T21:42:32.833Z,99.60
2022-12-29T21:45:20.698Z,99.60
2022-12-29T21:48:07.404Z,99.60
2022-12-29T21:50:57.923Z,99.60
2022-12-29T21:53:37.732Z,99.50
2022-12-29T21:56:19.224Z,99.40
2022-12-29T21:59:08.071Z,99.40
2022-12-29T22:01:57.327Z,99.40
2022-12-29T22:04:44.879Z,99.50
2022-12-29T22:07:31.475Z,99.50
2022-12-29T22:10:16.823Z,99.50
2022-12-29T22:13:03.050Z,99.50
2022-12-29T22:15:35.933Z,99.50
2022-12-29T22:18:04.260Z,99.40
2022-12-29T22:20:34.935Z,99.40
2022-12-29T22:23:02.312Z,99.40
2022-12-29T22:25:29.337Z,99.30
2022-12-29T22:27:59.400Z,99.30
2022-12-29T22:30:28.579Z,99.30
2022-12-29T22:32:57.509Z,99.30
2022-12-29T22:35:25.040Z,99.20
2022-12-29T22:37:52.074Z,99.20
2022-12-29T22:40:19.778Z,99.30
2022-12-29T22:42:46.758Z,99.30
2022-12-29T22:45:13.905Z,99.30
2022-12-29T22:47:40.952Z,99.20
2022-12-29T22:50:08.435Z,99.30
2022-12-29T22:52:35.720Z,99.20
2022-12-29T22:55:06.769Z,99.20
2022-12-29T22:57:34.732Z,99.20
2022-12-29T23:00:02.457Z,99.10
2022-12-29T23:02:30.467Z,99.10
2022-12-29T23:05:05.744Z,99.10
2022-12-29T23:07:35.370Z,99.10
2022-12-29T23:10:03.673Z,99.10
2022-12-29T23:12:31.590Z,99.20
2022-12-29T23:14:58.740Z,99.20
2022-12-29T23:17:25.839Z,99.20
2022-12-29T23:19:53.231Z,99.30
2022-12-29T23:22:20.640Z,99.30
2022-12-29T23:24:47.636Z,99.30
2022-12-29T23:27:14.648Z,99.50
2022-12-29T23:29:41.647Z,99.30
2022-12-29T23:32:08.795Z,99.30
2022-12-29T23:34:35.838Z,99.30
2022-12-29T23:37:02.869Z,99.30
2022-12-29T23:39:29.957Z,99.40
2022-12-29T23:41:57.374Z,99.40
2022-12-29T23:44:24.666Z,99.40
2022-12-29T23:46:51.809Z,99.60
2022-12-29T23:49:18.970Z,99.40
2022-12-29T23:51:45.990Z,99.40
2022-12-29T23:54:13.018Z,99.50
2022-12-29T23:56:40.049Z,99.60
2022-12-29T23:59:07.149Z,99.70
